Accueil
METAR-TAF:

METAR-TAF

Aéroports :

Aéroport international de Gibraltar

Gibraltar, Gibraltar

latitude: 36-09N, longitude: 005-21W, altitude: 5 m

Observation

Le bulletin a été fait il y a 54 minutes, à 02:50 UTC
Vent 2 kt de ouest
Température 21°C
Humidité 94%
Pression 1017 hPa
Visibilité: 0300 m
brouillard,

METAR: LXGB 240250Z AUTO 28002KT 0300 FG OVC001/// 21/20 Q1017

Heure: 05:44 (03:44 UTC)

Prévision

Le bulletin a été fait il y a 11 heures et 31 minutes, à 16:13 UTC
Prévision valable du 23 à 18 UTC au 23 à 22 UTC
Vent 10 kt de est
Visibilité 10 km ou plus
pas de nuages en-dessous de 1500 mètres et pas de cumulonimbus.
Probabilité 30% :
Temporairement
du 23 à 18 UTC au 23 à 22 UTC
Nuages épars à une hauteur de 1200 ft

TAF: LXGB 231613Z 2318/2322 08010KT CAVOK PROB30 TEMPO 2318/2322 SCT012

Observations et prévisions météorologiques de plus de 4000 aéroports (messages METAR et TAF).

Les stations disponibles sont représentées par des disques jaunes et rouges sur la carte.

Passer la souris dessus pour voir le nom de la station.

Cliquer dessus pour voir les observations et prévisions météorologiques.

Pour changer de carte: cliquez sur les boutons verts avec une croix noire pour zoomer, sur le bouton vert avec un tiret pour effectuer un zoom arrière, ou sur les flèches vertes pour les cartes adjacentes.


METAR-TAF: